createdAt,value
2022-10-11T00:02:00.084Z,20.30
2022-10-11T00:04:27.431Z,20.30
2022-10-11T00:06:55.062Z,20.30
2022-10-11T00:09:22.719Z,20.30
2022-10-11T00:11:50.080Z,20.30
2022-10-11T00:14:17.466Z,20.30
2022-10-11T00:16:45.003Z,20.30
2022-10-11T00:19:12.492Z,20.30
2022-10-11T00:21:39.862Z,20.30
2022-10-11T00:24:07.446Z,20.20
2022-10-11T00:26:34.898Z,20.20
2022-10-11T00:29:02.299Z,20.20
2022-10-11T00:31:34.650Z,20.20
2022-10-11T00:34:02.955Z,20.20
2022-10-11T00:36:30.406Z,20.20
2022-10-11T00:38:57.825Z,20.20
2022-10-11T00:41:25.309Z,20.20
2022-10-11T00:44:16.334Z,20.20
2022-10-11T00:46:59.130Z,20.20
2022-10-11T00:49:35.847Z,20.20
2022-10-11T00:52:23.085Z,20.10
2022-10-11T00:54:51.206Z,20.10
2022-10-11T00:57:22.251Z,20.10
2022-10-11T00:59:51.117Z,20.10
2022-10-11T01:02:19.570Z,20.10
2022-10-11T01:04:47.739Z,20.10
2022-10-11T01:07:15.507Z,20.10
2022-10-11T01:09:42.881Z,20.10
2022-10-11T01:12:18.759Z,20.10
2022-10-11T01:15:10.222Z,20.10
2022-10-11T01:18:02.235Z,20.10
2022-10-11T01:20:32.787Z,20.10
2022-10-11T01:23:11.908Z,20.00
2022-10-11T01:25:57.467Z,20.00
2022-10-11T01:28:30.929Z,20.00
2022-10-11T01:31:08.068Z,20.10
2022-10-11T01:34:03.912Z,20.00
2022-10-11T01:36:42.675Z,20.00
2022-10-11T01:39:36.121Z,20.00
2022-10-11T01:42:06.604Z,20.00
2022-10-11T01:44:36.207Z,19.90
2022-10-11T01:47:03.768Z,19.90
2022-10-11T01:49:31.215Z,19.90
2022-10-11T01:52:05.034Z,19.90
2022-10-11T01:55:09.081Z,19.90
2022-10-11T01:57:51.516Z,19.90
2022-10-11T02:00:21.954Z,19.90
2022-10-11T02:03:05.123Z,19.90
2022-10-11T02:05:45.719Z,19.90
2022-10-11T02:08:24.747Z,19.90
2022-10-11T02:11:14.939Z,19.90
2022-10-11T02:13:46.230Z,19.90
2022-10-11T02:16:19.015Z,19.80
2022-10-11T02:18:52.952Z,19.90
2022-10-11T02:21:23.235Z,19.80
2022-10-11T02:24:18.136Z,19.80
2022-10-11T02:26:52.967Z,19.80
2022-10-11T02:29:22.311Z,19.80
2022-10-11T02:31:51.193Z,19.80
2022-10-11T02:34:27.712Z,19.80
2022-10-11T02:37:16.242Z,19.80
2022-10-11T02:39:55.549Z,19.80
2022-10-11T02:42:37.456Z,19.80
2022-10-11T02:45:18.580Z,19.80
2022-10-11T02:47:47.092Z,19.80
2022-10-11T02:50:14.920Z,19.70
2022-10-11T02:52:42.325Z,19.70
2022-10-11T02:55:10.399Z,19.70
2022-10-11T02:57:38.872Z,19.70
2022-10-11T03:00:07.365Z,19.70
2022-10-11T03:02:34.989Z,19.70
2022-10-11T03:05:02.553Z,19.70
2022-10-11T03:07:29.948Z,19.70
2022-10-11T03:09:57.308Z,19.70
2022-10-11T03:12:24.735Z,19.70
2022-10-11T03:14:53.228Z,19.70
2022-10-11T03:17:35.584Z,19.70
2022-10-11T03:20:04.894Z,19.70
2022-10-11T03:22:32.247Z,19.70
2022-10-11T03:25:03.590Z,19.60
2022-10-11T03:27:32.770Z,19.60
2022-10-11T03:30:00.157Z,19.60
2022-10-11T03:32:27.896Z,19.60
2022-10-11T03:34:55.367Z,19.60
2022-10-11T03:37:22.795Z,19.60
2022-10-11T03:39:50.454Z,19.60
2022-10-11T03:42:17.803Z,19.60
2022-10-11T03:44:45.311Z,19.60
2022-10-11T03:47:12.946Z,19.60
2022-10-11T03:49:43.656Z,19.60
2022-10-11T03:52:11.679Z,19.60
2022-10-11T03:54:39.087Z,19.60
2022-10-11T03:57:06.457Z,19.60
2022-10-11T03:59:33.897Z,19.60
2022-10-11T04:02:01.693Z,19.50
2022-10-11T04:04:29.089Z,19.50
2022-10-11T04:06:56.428Z,19.50
2022-10-11T04:09:23.837Z,19.50
2022-10-11T04:11:51.269Z,19.50
2022-10-11T04:14:18.655Z,19.50
2022-10-11T04:16:46.031Z,19.50
2022-10-11T04:19:13.391Z,19.50
2022-10-11T04:21:40.919Z,19.50
2022-10-11T04:24:09.623Z,19.50
2022-10-11T04:26:37.119Z,19.50
2022-10-11T04:29:06.289Z,19.40
2022-10-11T04:31:33.656Z,19.40
2022-10-11T04:34:01.258Z,19.40
2022-10-11T04:36:28.737Z,19.40
2022-10-11T04:38:56.408Z,19.40
2022-10-11T04:41:23.763Z,19.40
2022-10-11T04:43:51.108Z,19.40
2022-10-11T04:46:18.463Z,19.40
2022-10-11T04:48:45.902Z,19.40
2022-10-11T04:51:13.306Z,19.40
2022-10-11T04:53:40.661Z,19.40
2022-10-11T04:56:11.738Z,19.40
2022-10-11T04:58:42.474Z,19.40
2022-10-11T05:01:10.778Z,19.40
2022-10-11T05:03:38.512Z,19.30
2022-10-11T05:06:06.366Z,19.40
2022-10-11T05:08:34.209Z,19.30
2022-10-11T05:11:07.029Z,19.30
2022-10-11T05:13:35.831Z,19.30
2022-10-11T05:16:08.428Z,19.30
2022-10-11T05:18:38.627Z,19.30
2022-10-11T05:21:18.225Z,19.30
2022-10-11T05:23:48.100Z,19.30
2022-10-11T05:26:16.444Z,19.30
2022-10-11T05:28:44.135Z,19.30
2022-10-11T05:31:11.899Z,19.30
2022-10-11T05:33:39.660Z,19.30
2022-10-11T05:36:08.345Z,19.30
2022-10-11T05:38:36.938Z,19.20
2022-10-11T05:41:05.279Z,19.20
2022-10-11T05:43:32.879Z,19.20
2022-10-11T05:46:00.482Z,19.20
2022-10-11T05:48:28.682Z,19.20
2022-10-11T05:51:05.402Z,19.20
2022-10-11T05:53:33.447Z,19.20
2022-10-11T05:56:01.058Z,19.20
2022-10-11T05:58:28.735Z,19.20
2022-10-11T06:00:57.150Z,19.20
2022-10-11T06:03:24.693Z,19.20
2022-10-11T06:05:56.534Z,19.20
2022-10-11T06:08:24.467Z,19.20
2022-10-11T06:10:51.856Z,19.20
2022-10-11T06:13:19.266Z,19.20
2022-10-11T06:15:46.719Z,19.20
2022-10-11T06:18:15.340Z,19.10
2022-10-11T06:20:42.670Z,19.10
2022-10-11T06:23:10.018Z,19.10
2022-10-11T06:25:37.392Z,19.10
2022-10-11T06:28:04.772Z,19.10
2022-10-11T06:30:32.167Z,19.10
2022-10-11T06:33:04.465Z,19.10
2022-10-11T06:35:32.350Z,19.10
2022-10-11T06:37:59.703Z,19.10
2022-10-11T06:40:27.196Z,19.10
2022-10-11T06:42:54.659Z,19.10
2022-10-11T06:45:22.033Z,19.10
2022-10-11T06:47:49.391Z,19.00
2022-10-11T06:50:22.676Z,19.10
2022-10-11T06:52:57.406Z,19.00
2022-10-11T06:55:25.142Z,19.10
2022-10-11T06:57:52.536Z,19.00
2022-10-11T07:00:20.284Z,19.00
2022-10-11T07:02:48.874Z,19.00
2022-10-11T07:05:17.591Z,19.00
2022-10-11T07:07:45.078Z,19.00
2022-10-11T07:10:12.452Z,19.00
2022-10-11T07:12:43.380Z,19.00
2022-10-11T07:15:11.198Z,18.90
2022-10-11T07:17:38.905Z,19.00
2022-10-11T07:20:07.490Z,18.90
2022-10-11T07:22:34.907Z,18.90
2022-10-11T07:25:02.592Z,18.90
2022-10-11T07:27:30.051Z,19.00
2022-10-11T07:29:57.824Z,18.90
2022-10-11T07:32:25.250Z,19.00
2022-10-11T07:34:52.608Z,19.00
2022-10-11T07:37:20.609Z,19.00
2022-10-11T07:39:49.914Z,19.00
2022-10-11T07:42:17.486Z,19.00
2022-10-11T07:44:44.912Z,19.00
2022-10-11T07:47:12.343Z,19.00
2022-10-11T07:49:58.504Z,19.00
2022-10-11T07:52:25.896Z,19.00
2022-10-11T07:54:53.294Z,18.90
2022-10-11T07:57:20.700Z,19.00
2022-10-11T07:59:50.359Z,19.00
2022-10-11T08:02:17.862Z,19.00
2022-10-11T08:04:45.284Z,19.00
2022-10-11T08:07:12.831Z,19.10
2022-10-11T08:09:40.247Z,19.10
2022-10-11T08:12:07.705Z,19.10
2022-10-11T08:14:35.061Z,19.10
2022-10-11T08:17:02.717Z,19.10
2022-10-11T08:19:30.154Z,19.10
2022-10-11T08:21:57.892Z,19.10
2022-10-11T08:24:25.451Z,19.20
2022-10-11T08:26:53.382Z,19.20
2022-10-11T08:29:21.429Z,19.20
2022-10-11T08:31:48.782Z,19.30
2022-10-11T08:34:16.220Z,19.40
2022-10-11T08:36:43.642Z,19.60
2022-10-11T08:39:11.369Z,19.80
2022-10-11T08:41:48.229Z,19.90
2022-10-11T08:45:05.486Z,20.10
2022-10-11T08:47:30.740Z,20.20
2022-10-11T08:49:59.944Z,20.50
2022-10-11T08:52:51.161Z,20.60
2022-10-11T08:55:21.369Z,20.80
2022-10-11T08:57:55.777Z,20.90
2022-10-11T09:00:24.672Z,21.00
2022-10-11T09:03:08.431Z,21.00
2022-10-11T09:05:44.978Z,21.10
2022-10-11T09:08:35.260Z,21.20
2022-10-11T09:11:10.778Z,21.30
2022-10-11T09:13:56.712Z,21.40
2022-10-11T09:17:04.567Z,21.50
2022-10-11T09:19:35.098Z,21.50
2022-10-11T09:22:44.433Z,21.50
2022-10-11T09:25:17.822Z,21.60
2022-10-11T09:28:07.061Z,21.60
2022-10-11T09:30:37.450Z,21.70
2022-10-11T09:33:18.001Z,21.80
2022-10-11T09:35:51.422Z,21.90
2022-10-11T09:38:28.347Z,22.00
2022-10-11T09:41:21.142Z,22.10
2022-10-11T09:43:50.750Z,22.20
2022-10-11T09:46:28.655Z,22.20
2022-10-11T09:48:58.230Z,22.30
2022-10-11T09:51:28.602Z,22.30
2022-10-11T09:54:00.611Z,22.40
2022-10-11T09:56:30.977Z,22.30
2022-10-11T09:59:26.892Z,22.30
2022-10-11T10:02:13.207Z,22.40
2022-10-11T10:05:05.356Z,22.40
2022-10-11T10:07:34.919Z,22.50
2022-10-11T10:10:34.357Z,22.50
2022-10-11T10:13:04.162Z,22.70
2022-10-11T10:15:36.912Z,22.70
2022-10-11T10:18:10.698Z,22.70
2022-10-11T10:20:38.757Z,22.80
2022-10-11T10:23:28.927Z,22.80
2022-10-11T10:26:22.550Z,22.80
2022-10-11T10:29:02.881Z,22.90
2022-10-11T10:32:12.907Z,22.90
2022-10-11T10:35:00.952Z,22.90
2022-10-11T10:37:58.371Z,22.90
2022-10-11T10:40:40.866Z,22.90
2022-10-11T10:43:15.918Z,22.90
2022-10-11T10:45:55.161Z,22.90
2022-10-11T10:49:41.569Z,23.00
2022-10-11T10:51:54.449Z,23.00
2022-10-11T10:54:34.176Z,23.00
2022-10-11T10:57:20.324Z,23.00
2022-10-11T11:00:13.452Z,23.00
2022-10-11T11:02:52.584Z,22.90
2022-10-11T11:05:41.673Z,22.90
2022-10-11T11:08:20.451Z,22.90
2022-10-11T11:11:12.049Z,22.90
2022-10-11T11:14:21.785Z,22.90
2022-10-11T11:17:22.478Z,22.80
2022-10-11T11:20:18.503Z,22.80
2022-10-11T11:23:16.628Z,22.80
2022-10-11T11:26:13.109Z,22.80
2022-10-11T11:28:55.572Z,22.80
2022-10-11T11:31:34.426Z,22.80
2022-10-11T11:34:23.459Z,22.90
2022-10-11T11:37:01.941Z,22.90
2022-10-11T11:39:44.032Z,22.90
2022-10-11T11:42:35.607Z,22.90
2022-10-11T11:45:15.549Z,22.90
2022-10-11T11:47:47.466Z,22.90
2022-10-11T11:50:24.285Z,22.90
2022-10-11T11:52:56.676Z,22.90
2022-10-11T11:55:43.896Z,22.90
2022-10-11T11:58:26.104Z,22.90
2022-10-11T12:00:53.475Z,22.90
2022-10-11T12:03:32.058Z,22.90
2022-10-11T12:06:14.907Z,22.90
2022-10-11T12:08:44.942Z,22.90
2022-10-11T12:11:34.548Z,22.90
2022-10-11T12:14:38.112Z,22.90
2022-10-11T12:17:19.503Z,22.90
2022-10-11T12:20:23.287Z,22.90
2022-10-11T12:22:50.642Z,22.90
2022-10-11T12:25:33.281Z,22.80
2022-10-11T12:28:37.632Z,22.80
2022-10-11T12:31:17.647Z,22.90
2022-10-11T12:33:52.172Z,22.80
2022-10-11T12:36:31.425Z,22.80
2022-10-11T12:39:20.653Z,22.80
2022-10-11T12:41:48.562Z,22.80
2022-10-11T12:44:19.365Z,22.80
2022-10-11T12:46:55.591Z,22.80
2022-10-11T12:50:10.450Z,22.80
2022-10-11T12:52:52.882Z,22.80
2022-10-11T12:56:08.708Z,22.80
2022-10-11T12:58:41.514Z,22.80
2022-10-11T13:01:19.035Z,22.80
2022-10-11T13:04:04.935Z,22.80
2022-10-11T13:06:36.897Z,22.80
2022-10-11T13:09:31.338Z,22.80
2022-10-11T13:12:21.985Z,22.80
2022-10-11T13:15:07.173Z,22.80
2022-10-11T13:17:38.810Z,22.80
2022-10-11T13:20:20.549Z,22.80
2022-10-11T13:22:50.568Z,22.80
2022-10-11T13:25:22.306Z,22.80
2022-10-11T13:27:52.700Z,22.80
2022-10-11T13:30:26.922Z,22.80
2022-10-11T13:32:56.363Z,22.80
2022-10-11T13:35:38.297Z,22.80
2022-10-11T13:38:09.286Z,22.80
2022-10-11T13:40:37.785Z,22.80
2022-10-11T13:43:06.468Z,22.80
2022-10-11T13:45:37.103Z,22.80
2022-10-11T13:48:05.140Z,22.80
2022-10-11T13:50:34.562Z,22.80
2022-10-11T13:53:10.954Z,22.80
2022-10-11T13:55:54.565Z,22.90
2022-10-11T13:58:27.249Z,22.90
2022-10-11T14:00:59.164Z,22.80
2022-10-11T14:03:44.738Z,22.80
2022-10-11T14:06:12.273Z,22.80
2022-10-11T14:08:42.490Z,22.90
2022-10-11T14:11:12.261Z,22.80
2022-10-11T14:13:45.713Z,22.80
2022-10-11T14:16:19.618Z,22.90
2022-10-11T14:19:10.064Z,22.90
2022-10-11T14:21:46.419Z,22.90
2022-10-11T14:24:14.814Z,22.90
2022-10-11T14:26:48.177Z,22.90
2022-10-11T14:29:24.853Z,22.90
2022-10-11T14:31:56.779Z,23.00
2022-10-11T14:34:25.969Z,23.00
2022-10-11T14:36:53.968Z,23.00
2022-10-11T14:39:24.743Z,23.00
2022-10-11T14:41:52.982Z,23.00
2022-10-11T14:44:21.742Z,23.00
2022-10-11T14:46:50.795Z,23.00
2022-10-11T14:49:25.203Z,23.00
2022-10-11T14:51:54.539Z,23.00
2022-10-11T14:54:25.079Z,23.00
2022-10-11T14:56:54.259Z,23.00
2022-10-11T14:59:23.813Z,23.00
2022-10-11T15:01:53.848Z,23.00
2022-10-11T15:04:22.892Z,23.00
2022-10-11T15:06:51.688Z,23.00
2022-10-11T15:09:21.398Z,23.00
2022-10-11T15:11:50.235Z,22.90
2022-10-11T15:14:17.670Z,22.90
2022-10-11T15:16:45.133Z,22.90
2022-10-11T15:19:18.512Z,22.90
2022-10-11T15:21:46.121Z,22.90
2022-10-11T15:24:14.314Z,22.90
2022-10-11T15:26:42.213Z,22.80
2022-10-11T15:29:13.494Z,22.80
2022-10-11T15:31:40.966Z,22.80
2022-10-11T15:34:08.643Z,22.80
2022-10-11T15:36:36.137Z,22.80
2022-10-11T15:39:03.755Z,22.80
2022-10-11T15:41:31.213Z,22.70
2022-10-11T15:43:58.664Z,22.70
2022-10-11T15:46:26.131Z,22.70
2022-10-11T15:48:53.626Z,22.70
2022-10-11T15:51:21.095Z,22.70
2022-10-11T15:53:48.536Z,22.70
2022-10-11T15:56:18.920Z,22.70
2022-10-11T15:58:46.431Z,22.70
2022-10-11T16:01:19.491Z,22.70
2022-10-11T16:03:50.990Z,22.60
2022-10-11T16:06:19.246Z,22.60
2022-10-11T16:08:47.934Z,22.60
2022-10-11T16:11:15.711Z,22.60
2022-10-11T16:13:43.193Z,22.60
2022-10-11T16:16:12.014Z,22.60
2022-10-11T16:18:40.548Z,22.60
2022-10-11T16:21:10.950Z,22.50
2022-10-11T16:23:39.080Z,22.50
2022-10-11T16:26:09.850Z,22.50
2022-10-11T16:28:38.013Z,22.50
2022-10-11T16:31:16.968Z,22.50
2022-10-11T16:33:48.008Z,22.50
2022-10-11T16:36:38.288Z,22.50
2022-10-11T16:39:15.622Z,22.40
2022-10-11T16:41:43.487Z,22.40
2022-10-11T16:44:19.748Z,22.40
2022-10-11T16:46:49.090Z,22.40
2022-10-11T16:49:20.069Z,22.40
2022-10-11T16:51:49.072Z,22.40
2022-10-11T16:54:20.512Z,22.30
2022-10-11T16:56:51.497Z,22.30
2022-10-11T16:59:19.696Z,22.30
2022-10-11T17:01:47.136Z,22.30
2022-10-11T17:04:14.720Z,22.30
2022-10-11T17:06:44.058Z,22.30
2022-10-11T17:09:11.857Z,22.30
2022-10-11T17:11:39.391Z,22.20
2022-10-11T17:14:07.892Z,22.20
2022-10-11T17:16:36.001Z,22.20
2022-10-11T17:19:03.671Z,22.20
2022-10-11T17:21:31.268Z,22.20
2022-10-11T17:23:58.792Z,22.20
2022-10-11T17:26:27.107Z,22.20
2022-10-11T17:28:56.519Z,22.20
2022-10-11T17:31:25.110Z,22.20
2022-10-11T17:33:54.564Z,22.20
2022-10-11T17:36:25.050Z,22.10
2022-10-11T17:38:53.126Z,22.20
2022-10-11T17:41:21.038Z,22.10
2022-10-11T17:43:48.741Z,22.10
2022-10-11T17:46:17.683Z,22.10
2022-10-11T17:48:45.982Z,22.10
2022-10-11T17:51:16.570Z,22.10
2022-10-11T17:53:45.314Z,22.00
2022-10-11T17:56:16.170Z,22.00
2022-10-11T17:58:44.258Z,22.10
2022-10-11T18:01:15.635Z,22.00
2022-10-11T18:03:53.069Z,22.00
2022-10-11T18:06:20.548Z,22.00
2022-10-11T18:08:48.294Z,22.00
2022-10-11T18:11:19.039Z,22.00
2022-10-11T18:13:51.910Z,22.00
2022-10-11T18:16:22.761Z,21.90
2022-10-11T18:18:50.962Z,22.00
2022-10-11T18:21:18.940Z,21.90
2022-10-11T18:23:46.981Z,21.90
2022-10-11T18:26:20.252Z,21.90
2022-10-11T18:28:48.798Z,21.90
2022-10-11T18:31:19.402Z,21.90
2022-10-11T18:33:48.193Z,21.90
2022-10-11T18:36:17.774Z,21.90
2022-10-11T18:38:49.121Z,21.90
2022-10-11T18:41:18.402Z,21.90
2022-10-11T18:43:54.455Z,21.90
2022-10-11T18:46:24.032Z,21.90
2022-10-11T18:48:54.033Z,21.90
2022-10-11T18:51:29.777Z,21.90
2022-10-11T18:54:00.335Z,21.90
2022-10-11T18:56:29.309Z,21.90
2022-10-11T18:58:58.134Z,21.90
2022-10-11T19:01:34.900Z,21.90
2022-10-11T19:04:04.074Z,21.90
2022-10-11T19:06:39.815Z,21.90
2022-10-11T19:09:12.752Z,21.90
2022-10-11T19:11:41.057Z,21.90
2022-10-11T19:14:11.612Z,21.90
2022-10-11T19:16:42.412Z,21.80
2022-10-11T19:19:12.211Z,21.80
2022-10-11T19:21:40.690Z,21.80
2022-10-11T19:24:08.822Z,21.80
2022-10-11T19:26:39.004Z,21.80
2022-10-11T19:29:06.585Z,21.80
2022-10-11T19:31:36.118Z,21.80
2022-10-11T19:34:03.873Z,21.80
2022-10-11T19:36:36.294Z,21.80
2022-10-11T19:39:05.713Z,21.80
2022-10-11T19:41:33.682Z,21.80
2022-10-11T19:44:01.111Z,21.70
2022-10-11T19:49:20.485Z,21.70
2022-10-11T19:51:47.853Z,21.70
2022-10-11T19:54:15.717Z,21.70
2022-10-11T19:56:43.775Z,21.70
2022-10-11T19:59:12.750Z,21.70
2022-10-11T20:01:41.453Z,21.70
2022-10-11T20:04:27.490Z,21.70
2022-10-11T20:06:58.953Z,21.70
2022-10-11T20:09:30.843Z,21.70
2022-10-11T20:11:58.798Z,21.60
2022-10-11T20:14:26.330Z,21.60
2022-10-11T20:16:53.797Z,21.70
2022-10-11T20:19:25.078Z,21.70
2022-10-11T20:21:56.805Z,21.60
2022-10-11T20:24:24.254Z,21.60
2022-10-11T20:26:51.670Z,21.60
2022-10-11T20:29:19.083Z,21.60
2022-10-11T20:31:46.461Z,21.60
2022-10-11T20:34:13.817Z,21.50
2022-10-11T20:36:42.212Z,21.50
2022-10-11T20:39:11.162Z,21.40
2022-10-11T20:41:42.840Z,21.40
2022-10-11T20:44:11.371Z,21.40
2022-10-11T20:46:40.128Z,21.40
2022-10-11T20:49:11.410Z,21.40
2022-10-11T20:51:41.697Z,21.30
2022-10-11T20:54:10.364Z,21.30
2022-10-11T20:56:38.769Z,21.30
2022-10-11T20:59:06.848Z,21.30
2022-10-11T21:01:40.438Z,21.30
2022-10-11T21:04:10.315Z,21.20
2022-10-11T21:06:37.804Z,21.20
2022-10-11T21:09:05.174Z,21.20
2022-10-11T21:11:34.148Z,21.10
2022-10-11T21:14:04.107Z,21.20
2022-10-11T21:16:32.989Z,21.10
2022-10-11T21:19:01.871Z,21.10
2022-10-11T21:21:29.764Z,21.10
2022-10-11T21:24:01.704Z,21.10
2022-10-11T21:26:30.434Z,21.00
2022-10-11T21:29:04.147Z,21.00
2022-10-11T21:31:34.270Z,21.00
2022-10-11T21:34:02.898Z,21.00
2022-10-11T21:36:30.496Z,21.00
2022-10-11T21:38:57.880Z,21.00
2022-10-11T21:41:26.607Z,20.90
2022-10-11T21:43:54.031Z,20.90
2022-10-11T21:46:54.207Z,20.90
2022-10-11T21:49:17.338Z,20.90
2022-10-11T21:51:45.314Z,20.90
2022-10-11T21:54:12.715Z,20.90
2022-10-11T21:56:40.290Z,20.90
2022-10-11T21:59:11.207Z,20.90
2022-10-11T22:01:40.881Z,20.90
2022-10-11T22:04:08.596Z,20.90
2022-10-11T22:06:36.873Z,20.90
2022-10-11T22:09:05.406Z,20.80
2022-10-11T22:11:33.868Z,20.80
2022-10-11T22:14:01.230Z,20.80
2022-10-11T22:16:28.632Z,20.80
2022-10-11T22:18:56.211Z,20.80
2022-10-11T22:21:24.112Z,20.70
2022-10-11T22:23:53.512Z,20.70
2022-10-11T22:26:26.865Z,20.70
2022-10-11T22:28:54.408Z,20.70
2022-10-11T22:31:22.711Z,20.70
2022-10-11T22:33:54.859Z,20.70
2022-10-11T22:36:24.480Z,20.70
2022-10-11T22:38:52.834Z,20.60
2022-10-11T22:41:20.318Z,20.60
2022-10-11T22:43:47.730Z,20.60
2022-10-11T22:46:15.156Z,20.60
2022-10-11T22:48:42.515Z,20.60
2022-10-11T22:51:09.873Z,20.60
2022-10-11T22:53:37.246Z,20.60
2022-10-11T22:56:04.834Z,20.50
2022-10-11T22:58:32.212Z,20.60
2022-10-11T23:01:14.115Z,20.50
2022-10-11T23:03:41.604Z,20.50
2022-10-11T23:06:09.670Z,20.50
2022-10-11T23:08:37.037Z,20.50
2022-10-11T23:11:08.002Z,20.50
2022-10-11T23:13:36.122Z,20.50
2022-10-11T23:16:11.705Z,20.50
2022-10-11T23:18:39.463Z,20.50
2022-10-11T23:21:07.936Z,20.50
2022-10-11T23:23:35.700Z,20.40
2022-10-11T23:26:11.006Z,20.40
2022-10-11T23:28:38.458Z,20.40
2022-10-11T23:31:11.643Z,20.40
2022-10-11T23:33:39.445Z,20.40
2022-10-11T23:36:12.800Z,20.40
2022-10-11T23:38:40.301Z,20.40
2022-10-11T23:41:07.957Z,20.30
2022-10-11T23:43:35.439Z,20.30
2022-10-11T23:46:02.847Z,20.30
2022-10-11T23:48:30.245Z,20.30
2022-10-11T23:50:57.589Z,20.30
2022-10-11T23:53:25.103Z,20.30
2022-10-11T23:55:52.474Z,20.30
2022-10-11T23:58:19.863Z,20.30
